sensor_id;sensor_type;location;lat;lon;timestamp;P1;durP1;ratioP1;P2;durP2;ratioP2
20417;SDS011;10368;51.436;6.774;2022-08-05T00:02:07;9.07;;;5.47;;
20417;SDS011;10368;51.436;6.774;2022-08-05T00:04:36;7.43;;;3.80;;
20417;SDS011;10368;51.436;6.774;2022-08-05T00:07:05;7.88;;;5.28;;
20417;SDS011;10368;51.436;6.774;2022-08-05T00:09:52;7.40;;;4.82;;
20417;SDS011;10368;51.436;6.774;2022-08-05T00:12:19;16.92;;;5.15;;
20417;SDS011;10368;51.436;6.774;2022-08-05T00:14:47;7.68;;;5.57;;
20417;SDS011;10368;51.436;6.774;2022-08-05T00:17:17;8.27;;;4.55;;
20417;SDS011;10368;51.436;6.774;2022-08-05T00:19:44;8.50;;;4.82;;
20417;SDS011;10368;51.436;6.774;2022-08-05T00:22:28;7.63;;;5.32;;
20417;SDS011;10368;51.436;6.774;2022-08-05T00:24:56;9.18;;;4.78;;
20417;SDS011;10368;51.436;6.774;2022-08-05T00:27:23;10.05;;;5.90;;
20417;SDS011;10368;51.436;6.774;2022-08-05T00:30:01;6.05;;;5.40;;
20417;SDS011;10368;51.436;6.774;2022-08-05T00:32:29;7.63;;;5.50;;
20417;SDS011;10368;51.436;6.774;2022-08-05T00:34:56;7.00;;;5.32;;
20417;SDS011;10368;51.436;6.774;2022-08-05T00:37:33;7.68;;;5.85;;
20417;SDS011;10368;51.436;6.774;2022-08-05T00:40:19;5.10;;;4.57;;
20417;SDS011;10368;51.436;6.774;2022-08-05T00:42:57;7.20;;;5.50;;
20417;SDS011;10368;51.436;6.774;2022-08-05T00:45:25;11.80;;;5.00;;
20417;SDS011;10368;51.436;6.774;2022-08-05T00:48:04;7.70;;;5.60;;
20417;SDS011;10368;51.436;6.774;2022-08-05T00:50:32;7.47;;;5.50;;
20417;SDS011;10368;51.436;6.774;2022-08-05T00:53:00;9.32;;;4.88;;
20417;SDS011;10368;51.436;6.774;2022-08-05T00:55:28;7.50;;;5.47;;
20417;SDS011;10368;51.436;6.774;2022-08-05T00:58:09;5.97;;;4.85;;
20417;SDS011;10368;51.436;6.774;2022-08-05T01:00:36;7.32;;;5.80;;
20417;SDS011;10368;51.436;6.774;2022-08-05T01:03:04;7.65;;;5.53;;
20417;SDS011;10368;51.436;6.774;2022-08-05T01:05:33;6.30;;;5.53;;
20417;SDS011;10368;51.436;6.774;2022-08-05T01:08:00;7.43;;;5.28;;
20417;SDS011;10368;51.436;6.774;2022-08-05T01:10:55;5.50;;;4.70;;
20417;SDS011;10368;51.436;6.774;2022-08-05T01:16:23;5.63;;;4.90;;
20417;SDS011;10368;51.436;6.774;2022-08-05T01:18:53;8.52;;;4.95;;
20417;SDS011;10368;51.436;6.774;2022-08-05T01:26:55;7.00;;;4.70;;
20417;SDS011;10368;51.436;6.774;2022-08-05T01:29:44;6.40;;;4.65;;
20417;SDS011;10368;51.436;6.774;2022-08-05T01:32:15;7.53;;;5.13;;
20417;SDS011;10368;51.436;6.774;2022-08-05T01:34:45;6.20;;;5.07;;
20417;SDS011;10368;51.436;6.774;2022-08-05T01:37:24;10.18;;;6.05;;
20417;SDS011;10368;51.436;6.774;2022-08-05T01:39:58;8.07;;;5.70;;
20417;SDS011;10368;51.436;6.774;2022-08-05T01:42:27;12.38;;;6.13;;
20417;SDS011;10368;51.436;6.774;2022-08-05T01:44:57;7.22;;;6.53;;
20417;SDS011;10368;51.436;6.774;2022-08-05T01:47:27;9.25;;;6.53;;
20417;SDS011;10368;51.436;6.774;2022-08-05T01:50:10;7.00;;;6.28;;
20417;SDS011;10368;51.436;6.774;2022-08-05T01:52:40;7.97;;;7.18;;
20417;SDS011;10368;51.436;6.774;2022-08-05T01:55:09;8.80;;;6.65;;
20417;SDS011;10368;51.436;6.774;2022-08-05T01:57:39;6.13;;;5.63;;
20417;SDS011;10368;51.436;6.774;2022-08-05T02:00:27;7.57;;;6.07;;
20417;SDS011;10368;51.436;6.774;2022-08-05T02:02:57;6.65;;;5.85;;
20417;SDS011;10368;51.436;6.774;2022-08-05T02:05:30;6.82;;;5.95;;
20417;SDS011;10368;51.436;6.774;2022-08-05T02:08:01;7.38;;;6.43;;
20417;SDS011;10368;51.436;6.774;2022-08-05T02:10:30;6.68;;;5.97;;
20417;SDS011;10368;51.436;6.774;2022-08-05T02:15:46;10.00;;;5.80;;
20417;SDS011;10368;51.436;6.774;2022-08-05T02:23:41;6.40;;;5.72;;
20417;SDS011;10368;51.436;6.774;2022-08-05T02:26:11;6.05;;;4.75;;
20417;SDS011;10368;51.436;6.774;2022-08-05T02:28:42;6.63;;;5.45;;
20417;SDS011;10368;51.436;6.774;2022-08-05T02:31:13;7.28;;;4.88;;
20417;SDS011;10368;51.436;6.774;2022-08-05T02:33:47;9.20;;;5.55;;
20417;SDS011;10368;51.436;6.774;2022-08-05T02:36:23;6.40;;;5.80;;
20417;SDS011;10368;51.436;6.774;2022-08-05T02:38:56;7.25;;;5.90;;
20417;SDS011;10368;51.436;6.774;2022-08-05T02:41:24;20.33;;;6.18;;
20417;SDS011;10368;51.436;6.774;2022-08-05T02:44:02;8.18;;;5.63;;
20417;SDS011;10368;51.436;6.774;2022-08-05T02:46:38;10.52;;;6.25;;
20417;SDS011;10368;51.436;6.774;2022-08-05T02:49:24;7.40;;;6.03;;
20417;SDS011;10368;51.436;6.774;2022-08-05T02:52:01;7.55;;;6.75;;
20417;SDS011;10368;51.436;6.774;2022-08-05T02:54:30;8.00;;;6.63;;
20417;SDS011;10368;51.436;6.774;2022-08-05T02:57:02;11.00;;;6.57;;
20417;SDS011;10368;51.436;6.774;2022-08-05T02:59:51;7.15;;;6.45;;
20417;SDS011;10368;51.436;6.774;2022-08-05T03:02:19;7.57;;;6.88;;
20417;SDS011;10368;51.436;6.774;2022-08-05T03:04:53;7.10;;;6.20;;
20417;SDS011;10368;51.436;6.774;2022-08-05T03:07:22;8.73;;;6.80;;
20417;SDS011;10368;51.436;6.774;2022-08-05T03:10:09;7.32;;;6.55;;
20417;SDS011;10368;51.436;6.774;2022-08-05T03:12:38;11.27;;;7.97;;
20417;SDS011;10368;51.436;6.774;2022-08-05T03:15:07;8.43;;;7.03;;
20417;SDS011;10368;51.436;6.774;2022-08-05T03:17:37;10.02;;;7.47;;
20417;SDS011;10368;51.436;6.774;2022-08-05T03:20:09;8.57;;;7.05;;
20417;SDS011;10368;51.436;6.774;2022-08-05T03:22:38;11.60;;;6.72;;
20417;SDS011;10368;51.436;6.774;2022-08-05T03:25:11;10.23;;;6.45;;
20417;SDS011;10368;51.436;6.774;2022-08-05T03:27:59;10.98;;;6.82;;
20417;SDS011;10368;51.436;6.774;2022-08-05T03:30:27;7.55;;;6.78;;
20417;SDS011;10368;51.436;6.774;2022-08-05T03:32:59;10.75;;;7.18;;
20417;SDS011;10368;51.436;6.774;2022-08-05T03:35:27;10.13;;;6.95;;
20417;SDS011;10368;51.436;6.774;2022-08-05T03:37:59;9.00;;;6.68;;
20417;SDS011;10368;51.436;6.774;2022-08-05T03:40:26;11.98;;;7.13;;
20417;SDS011;10368;51.436;6.774;2022-08-05T03:42:57;15.20;;;7.78;;
20417;SDS011;10368;51.436;6.774;2022-08-05T03:45:45;9.27;;;7.88;;
20417;SDS011;10368;51.436;6.774;2022-08-05T03:48:23;9.60;;;7.32;;
20417;SDS011;10368;51.436;6.774;2022-08-05T03:50:54;12.65;;;8.93;;
20417;SDS011;10368;51.436;6.774;2022-08-05T03:53:55;9.70;;;8.35;;
20417;SDS011;10368;51.436;6.774;2022-08-05T03:56:44;10.90;;;9.73;;
20417;SDS011;10368;51.436;6.774;2022-08-05T03:59:13;12.70;;;9.23;;
20417;SDS011;10368;51.436;6.774;2022-08-05T04:01:46;8.68;;;7.47;;
20417;SDS011;10368;51.436;6.774;2022-08-05T04:04:15;11.85;;;8.73;;
20417;SDS011;10368;51.436;6.774;2022-08-05T04:06:46;10.52;;;9.20;;
20417;SDS011;10368;51.436;6.774;2022-08-05T04:09:17;10.30;;;8.98;;
20417;SDS011;10368;51.436;6.774;2022-08-05T04:11:51;10.98;;;9.75;;
20417;SDS011;10368;51.436;6.774;2022-08-05T04:14:18;14.93;;;10.60;;
20417;SDS011;10368;51.436;6.774;2022-08-05T04:16:56;15.05;;;10.98;;
20417;SDS011;10368;51.436;6.774;2022-08-05T04:19:26;14.82;;;10.43;;
20417;SDS011;10368;51.436;6.774;2022-08-05T04:21:53;12.25;;;10.85;;
20417;SDS011;10368;51.436;6.774;2022-08-05T04:24:37;13.75;;;12.32;;
20417;SDS011;10368;51.436;6.774;2022-08-05T04:27:17;15.48;;;13.15;;
20417;SDS011;10368;51.436;6.774;2022-08-05T04:29:58;16.38;;;14.40;;
20417;SDS011;10368;51.436;6.774;2022-08-05T04:32:29;14.68;;;12.82;;
20417;SDS011;10368;51.436;6.774;2022-08-05T04:34:58;15.98;;;13.88;;
20417;SDS011;10368;51.436;6.774;2022-08-05T04:37:26;16.88;;;14.32;;
20417;SDS011;10368;51.436;6.774;2022-08-05T04:40:13;15.00;;;13.60;;
20417;SDS011;10368;51.436;6.774;2022-08-05T04:42:44;16.98;;;12.10;;
20417;SDS011;10368;51.436;6.774;2022-08-05T04:45:13;16.67;;;11.93;;
20417;SDS011;10368;51.436;6.774;2022-08-05T04:48:04;14.10;;;12.68;;
20417;SDS011;10368;51.436;6.774;2022-08-05T04:50:53;14.75;;;12.45;;
20417;SDS011;10368;51.436;6.774;2022-08-05T04:53:36;13.05;;;10.95;;
20417;SDS011;10368;51.436;6.774;2022-08-05T04:56:05;15.02;;;11.38;;
20417;SDS011;10368;51.436;6.774;2022-08-05T04:58:53;12.30;;;10.90;;
20417;SDS011;10368;51.436;6.774;2022-08-05T05:01:20;16.48;;;11.52;;
20417;SDS011;10368;51.436;6.774;2022-08-05T05:04:07;14.98;;;13.15;;
20417;SDS011;10368;51.436;6.774;2022-08-05T05:06:35;17.40;;;13.73;;
20417;SDS011;10368;51.436;6.774;2022-08-05T05:09:10;22.55;;;15.20;;
20417;SDS011;10368;51.436;6.774;2022-08-05T05:11:39;15.43;;;13.60;;
20417;SDS011;10368;51.436;6.774;2022-08-05T05:14:20;20.20;;;14.35;;
20417;SDS011;10368;51.436;6.774;2022-08-05T05:16:57;15.55;;;12.88;;
20417;SDS011;10368;51.436;6.774;2022-08-05T05:19:24;14.07;;;12.57;;
20417;SDS011;10368;51.436;6.774;2022-08-05T05:22:01;14.10;;;11.25;;
20417;SDS011;10368;51.436;6.774;2022-08-05T05:24:49;17.38;;;12.65;;
20417;SDS011;10368;51.436;6.774;2022-08-05T05:27:28;17.38;;;12.13;;
20417;SDS011;10368;51.436;6.774;2022-08-05T05:30:13;17.00;;;12.00;;
20417;SDS011;10368;51.436;6.774;2022-08-05T05:32:59;15.48;;;12.90;;
20417;SDS011;10368;51.436;6.774;2022-08-05T05:35:42;14.68;;;11.20;;
20417;SDS011;10368;51.436;6.774;2022-08-05T05:38:10;18.83;;;13.23;;
20417;SDS011;10368;51.436;6.774;2022-08-05T05:40:39;16.92;;;14.32;;
20417;SDS011;10368;51.436;6.774;2022-08-05T05:43:15;16.45;;;14.75;;
20417;SDS011;10368;51.436;6.774;2022-08-05T05:46:02;13.82;;;12.40;;
20417;SDS011;10368;51.436;6.774;2022-08-05T05:48:36;15.32;;;13.45;;
20417;SDS011;10368;51.436;6.774;2022-08-05T05:51:04;15.23;;;13.73;;
20417;SDS011;10368;51.436;6.774;2022-08-05T05:53:41;13.07;;;11.75;;
20417;SDS011;10368;51.436;6.774;2022-08-05T05:56:33;14.77;;;12.27;;
20417;SDS011;10368;51.436;6.774;2022-08-05T05:59:04;15.75;;;12.90;;
20417;SDS011;10368;51.436;6.774;2022-08-05T06:01:33;15.07;;;13.65;;
20417;SDS011;10368;51.436;6.774;2022-08-05T06:04:12;25.23;;;14.20;;
20417;SDS011;10368;51.436;6.774;2022-08-05T06:06:40;17.95;;;12.40;;
20417;SDS011;10368;51.436;6.774;2022-08-05T06:09:12;18.08;;;12.40;;
20417;SDS011;10368;51.436;6.774;2022-08-05T06:11:52;17.08;;;11.43;;
20417;SDS011;10368;51.436;6.774;2022-08-05T06:14:30;12.25;;;10.70;;
20417;SDS011;10368;51.436;6.774;2022-08-05T06:17:00;14.23;;;10.98;;
20417;SDS011;10368;51.436;6.774;2022-08-05T06:19:47;12.45;;;10.15;;
20417;SDS011;10368;51.436;6.774;2022-08-05T06:22:28;15.98;;;12.35;;
20417;SDS011;10368;51.436;6.774;2022-08-05T06:24:58;15.27;;;13.55;;
20417;SDS011;10368;51.436;6.774;2022-08-05T06:27:46;17.27;;;11.52;;
20417;SDS011;10368;51.436;6.774;2022-08-05T06:30:33;14.23;;;11.35;;
20417;SDS011;10368;51.436;6.774;2022-08-05T06:33:00;19.58;;;9.07;;
20417;SDS011;10368;51.436;6.774;2022-08-05T06:35:27;13.63;;;8.85;;
20417;SDS011;10368;51.436;6.774;2022-08-05T06:38:15;11.38;;;7.90;;
20417;SDS011;10368;51.436;6.774;2022-08-05T06:41:01;9.23;;;7.80;;
20417;SDS011;10368;51.436;6.774;2022-08-05T06:43:28;11.38;;;7.97;;
20417;SDS011;10368;51.436;6.774;2022-08-05T06:46:16;11.00;;;8.32;;
20417;SDS011;10368;51.436;6.774;2022-08-05T06:48:44;9.10;;;7.20;;
20417;SDS011;10368;51.436;6.774;2022-08-05T06:51:23;12.50;;;7.70;;
20417;SDS011;10368;51.436;6.774;2022-08-05T06:53:59;16.38;;;9.23;;
20417;SDS011;10368;51.436;6.774;2022-08-05T06:56:27;11.65;;;8.23;;
20417;SDS011;10368;51.436;6.774;2022-08-05T06:58:59;12.10;;;7.63;;
20417;SDS011;10368;51.436;6.774;2022-08-05T07:01:26;13.10;;;7.95;;
20417;SDS011;10368;51.436;6.774;2022-08-05T07:03:58;11.98;;;7.25;;
20417;SDS011;10368;51.436;6.774;2022-08-05T07:06:26;10.15;;;7.82;;
20417;SDS011;10368;51.436;6.774;2022-08-05T07:08:53;10.50;;;7.10;;
20417;SDS011;10368;51.436;6.774;2022-08-05T07:11:24;8.38;;;7.30;;
20417;SDS011;10368;51.436;6.774;2022-08-05T07:13:53;12.95;;;7.53;;
20417;SDS011;10368;51.436;6.774;2022-08-05T07:16:41;8.38;;;6.45;;
20417;SDS011;10368;51.436;6.774;2022-08-05T07:19:37;10.25;;;6.43;;
20417;SDS011;10368;51.436;6.774;2022-08-05T07:22:24;9.55;;;6.63;;
20417;SDS011;10368;51.436;6.774;2022-08-05T07:24:58;7.47;;;6.20;;
20417;SDS011;10368;51.436;6.774;2022-08-05T07:27:46;5.80;;;5.30;;
20417;SDS011;10368;51.436;6.774;2022-08-05T07:30:32;7.90;;;4.85;;
20417;SDS011;10368;51.436;6.774;2022-08-05T07:33:05;9.85;;;6.10;;
20417;SDS011;10368;51.436;6.774;2022-08-05T07:35:35;6.60;;;5.68;;
20417;SDS011;10368;51.436;6.774;2022-08-05T07:38:23;8.32;;;5.32;;
20417;SDS011;10368;51.436;6.774;2022-08-05T07:41:04;8.25;;;6.25;;
20417;SDS011;10368;51.436;6.774;2022-08-05T07:43:52;7.47;;;5.40;;
20417;SDS011;10368;51.436;6.774;2022-08-05T07:46:25;10.32;;;4.78;;
20417;SDS011;10368;51.436;6.774;2022-08-05T07:48:57;5.85;;;4.72;;
20417;SDS011;10368;51.436;6.774;2022-08-05T07:51:32;7.53;;;5.40;;
20417;SDS011;10368;51.436;6.774;2022-08-05T07:54:13;11.00;;;5.78;;
20417;SDS011;10368;51.436;6.774;2022-08-05T07:56:41;9.93;;;5.63;;
20417;SDS011;10368;51.436;6.774;2022-08-05T07:59:28;7.63;;;5.07;;
20417;SDS011;10368;51.436;6.774;2022-08-05T08:02:09;7.47;;;4.78;;
20417;SDS011;10368;51.436;6.774;2022-08-05T08:04:47;7.55;;;6.13;;
20417;SDS011;10368;51.436;6.774;2022-08-05T08:07:18;7.57;;;5.25;;
20417;SDS011;10368;51.436;6.774;2022-08-05T08:09:51;6.85;;;5.05;;
20417;SDS011;10368;51.436;6.774;2022-08-05T08:12:20;7.97;;;5.35;;
20417;SDS011;10368;51.436;6.774;2022-08-05T08:15:05;7.05;;;5.25;;
20417;SDS011;10368;51.436;6.774;2022-08-05T08:17:41;7.82;;;6.57;;
20417;SDS011;10368;51.436;6.774;2022-08-05T08:20:18;8.25;;;5.05;;
20417;SDS011;10368;51.436;6.774;2022-08-05T08:23:05;10.20;;;4.97;;
20417;SDS011;10368;51.436;6.774;2022-08-05T08:25:52;10.98;;;5.28;;
20417;SDS011;10368;51.436;6.774;2022-08-05T08:28:28;11.98;;;6.30;;
20417;SDS011;10368;51.436;6.774;2022-08-05T08:31:07;11.48;;;6.47;;
20417;SDS011;10368;51.436;6.774;2022-08-05T08:33:40;17.05;;;6.55;;
20417;SDS011;10368;51.436;6.774;2022-08-05T08:36:08;7.25;;;6.22;;
20417;SDS011;10368;51.436;6.774;2022-08-05T08:38:56;10.75;;;5.93;;
20417;SDS011;10368;51.436;6.774;2022-08-05T08:41:26;9.10;;;6.35;;
20417;SDS011;10368;51.436;6.774;2022-08-05T08:44:19;13.75;;;5.40;;
20417;SDS011;10368;51.436;6.774;2022-08-05T08:47:07;8.75;;;5.63;;
20417;SDS011;10368;51.436;6.774;2022-08-05T08:49:55;6.25;;;5.03;;
20417;SDS011;10368;51.436;6.774;2022-08-05T08:52:42;9.98;;;5.30;;
20417;SDS011;10368;51.436;6.774;2022-08-05T08:55:19;7.70;;;6.22;;
20417;SDS011;10368;51.436;6.774;2022-08-05T08:58:07;8.93;;;5.07;;
20417;SDS011;10368;51.436;6.774;2022-08-05T09:00:34;6.47;;;5.03;;
20417;SDS011;10368;51.436;6.774;2022-08-05T09:03:04;5.50;;;4.68;;
20417;SDS011;10368;51.436;6.774;2022-08-05T09:05:32;8.23;;;5.38;;
20417;SDS011;10368;51.436;6.774;2022-08-05T09:08:21;8.93;;;5.45;;
20417;SDS011;10368;51.436;6.774;2022-08-05T09:10:52;7.25;;;6.05;;
20417;SDS011;10368;51.436;6.774;2022-08-05T09:13:20;8.18;;;5.90;;
20417;SDS011;10368;51.436;6.774;2022-08-05T09:15:49;6.63;;;5.82;;
20417;SDS011;10368;51.436;6.774;2022-08-05T09:18:16;10.57;;;5.32;;
20417;SDS011;10368;51.436;6.774;2022-08-05T09:20:43;7.60;;;5.80;;
20417;SDS011;10368;51.436;6.774;2022-08-05T09:25:49;6.07;;;5.45;;
20417;SDS011;10368;51.436;6.774;2022-08-05T09:28:31;7.80;;;5.20;;
20417;SDS011;10368;51.436;6.774;2022-08-05T09:31:02;7.57;;;4.88;;
20417;SDS011;10368;51.436;6.774;2022-08-05T09:36:21;6.30;;;4.13;;
20417;SDS011;10368;51.436;6.774;2022-08-05T09:39:00;5.68;;;3.60;;
20417;SDS011;10368;51.436;6.774;2022-08-05T09:47:08;5.57;;;4.40;;
20417;SDS011;10368;51.436;6.774;2022-08-05T09:49:50;5.10;;;4.45;;
20417;SDS011;10368;51.436;6.774;2022-08-05T09:57:47;4.30;;;3.35;;
20417;SDS011;10368;51.436;6.774;2022-08-05T10:00:21;3.50;;;3.20;;
20417;SDS011;10368;51.436;6.774;2022-08-05T10:02:50;6.50;;;3.55;;
20417;SDS011;10368;51.436;6.774;2022-08-05T10:05:24;5.45;;;3.92;;
20417;SDS011;10368;51.436;6.774;2022-08-05T10:10:46;4.65;;;3.50;;
20417;SDS011;10368;51.436;6.774;2022-08-05T10:18:57;3.05;;;2.58;;
20417;SDS011;10368;51.436;6.774;2022-08-05T10:21:25;3.47;;;2.65;;
20417;SDS011;10368;51.436;6.774;2022-08-05T10:24:00;3.65;;;2.83;;
20417;SDS011;10368;51.436;6.774;2022-08-05T10:26:36;3.47;;;2.42;;
20417;SDS011;10368;51.436;6.774;2022-08-05T10:29:19;5.80;;;2.55;;
20417;SDS011;10368;51.436;6.774;2022-08-05T10:32:07;2.83;;;2.30;;
20417;SDS011;10368;51.436;6.774;2022-08-05T10:34:54;4.30;;;1.83;;
20417;SDS011;10368;51.436;6.774;2022-08-05T10:37:27;12.95;;;3.15;;
20417;SDS011;10368;51.436;6.774;2022-08-05T10:40:32;5.68;;;2.45;;
20417;SDS011;10368;51.436;6.774;2022-08-05T10:43:20;3.78;;;2.30;;
20417;SDS011;10368;51.436;6.774;2022-08-05T10:46:00;3.58;;;2.20;;
20417;SDS011;10368;51.436;6.774;2022-08-05T10:51:21;3.40;;;2.38;;
20417;SDS011;10368;51.436;6.774;2022-08-05T10:53:58;5.47;;;2.60;;
20417;SDS011;10368;51.436;6.774;2022-08-05T10:56:27;4.13;;;2.83;;
20417;SDS011;10368;51.436;6.774;2022-08-05T11:01:36;5.80;;;2.92;;
20417;SDS011;10368;51.436;6.774;2022-08-05T11:04:24;8.20;;;2.80;;
20417;SDS011;10368;51.436;6.774;2022-08-05T11:09:24;3.53;;;2.28;;
20417;SDS011;10368;51.436;6.774;2022-08-05T11:15:06;6.97;;;3.33;;
20417;SDS011;10368;51.436;6.774;2022-08-05T11:17:52;3.45;;;2.25;;
20417;SDS011;10368;51.436;6.774;2022-08-05T11:28:57;3.47;;;2.70;;
20417;SDS011;10368;51.436;6.774;2022-08-05T11:31:38;5.20;;;3.20;;
20417;SDS011;10368;51.436;6.774;2022-08-05T11:34:34;4.20;;;3.03;;
20417;SDS011;10368;51.436;6.774;2022-08-05T11:37:02;4.75;;;4.00;;
20417;SDS011;10368;51.436;6.774;2022-08-05T11:39:49;3.35;;;3.05;;
20417;SDS011;10368;51.436;6.774;2022-08-05T11:42:26;5.35;;;3.03;;
20417;SDS011;10368;51.436;6.774;2022-08-05T11:44:54;2.88;;;2.67;;
20417;SDS011;10368;51.436;6.774;2022-08-05T11:47:28;3.80;;;3.00;;
20417;SDS011;10368;51.436;6.774;2022-08-05T11:50:15;5.63;;;3.38;;
20417;SDS011;10368;51.436;6.774;2022-08-05T11:52:42;5.65;;;3.65;;
20417;SDS011;10368;51.436;6.774;2022-08-05T11:55:14;4.07;;;2.92;;
20417;SDS011;10368;51.436;6.774;2022-08-05T11:57:44;6.57;;;5.70;;
20417;SDS011;10368;51.436;6.774;2022-08-05T12:00:31;5.75;;;4.85;;
20417;SDS011;10368;51.436;6.774;2022-08-05T12:03:22;7.78;;;5.68;;
20417;SDS011;10368;51.436;6.774;2022-08-05T12:06:06;7.18;;;5.60;;
20417;SDS011;10368;51.436;6.774;2022-08-05T12:08:55;5.50;;;4.75;;
20417;SDS011;10368;51.436;6.774;2022-08-05T12:11:28;9.52;;;5.25;;
20417;SDS011;10368;51.436;6.774;2022-08-05T12:14:07;4.88;;;4.45;;
20417;SDS011;10368;51.436;6.774;2022-08-05T12:16:39;4.47;;;4.07;;
20417;SDS011;10368;51.436;6.774;2022-08-05T12:19:10;6.15;;;4.68;;
20417;SDS011;10368;51.436;6.774;2022-08-05T12:21:58;5.20;;;3.20;;
20417;SDS011;10368;51.436;6.774;2022-08-05T12:24:26;6.65;;;3.63;;
20417;SDS011;10368;51.436;6.774;2022-08-05T12:26:55;5.00;;;3.20;;
20417;SDS011;10368;51.436;6.774;2022-08-05T12:29:23;4.18;;;2.60;;
20417;SDS011;10368;51.436;6.774;2022-08-05T12:31:52;8.07;;;3.90;;
20417;SDS011;10368;51.436;6.774;2022-08-05T12:34:21;3.90;;;3.60;;
20417;SDS011;10368;51.436;6.774;2022-08-05T12:36:51;6.72;;;3.90;;
20417;SDS011;10368;51.436;6.774;2022-08-05T12:39:19;4.43;;;3.40;;
20417;SDS011;10368;51.436;6.774;2022-08-05T12:41:46;5.35;;;3.30;;
20417;SDS011;10368;51.436;6.774;2022-08-05T12:44:14;3.92;;;3.53;;
20417;SDS011;10368;51.436;6.774;2022-08-05T12:46:58;4.80;;;3.40;;
20417;SDS011;10368;51.436;6.774;2022-08-05T12:49:27;3.60;;;3.05;;
20417;SDS011;10368;51.436;6.774;2022-08-05T12:52:24;5.60;;;3.60;;
20417;SDS011;10368;51.436;6.774;2022-08-05T12:55:00;5.10;;;3.15;;
20417;SDS011;10368;51.436;6.774;2022-08-05T12:57:27;6.30;;;3.47;;
20417;SDS011;10368;51.436;6.774;2022-08-05T13:00:21;4.72;;;3.25;;
20417;SDS011;10368;51.436;6.774;2022-08-05T13:03:09;6.25;;;2.72;;
20417;SDS011;10368;51.436;6.774;2022-08-05T13:05:39;3.00;;;2.58;;
20417;SDS011;10368;51.436;6.774;2022-08-05T13:08:07;4.65;;;2.13;;
20417;SDS011;10368;51.436;6.774;2022-08-05T13:10:40;3.35;;;2.20;;
20417;SDS011;10368;51.436;6.774;2022-08-05T13:13:18;4.53;;;2.10;;
20417;SDS011;10368;51.436;6.774;2022-08-05T13:16:15;2.67;;;1.98;;
20417;SDS011;10368;51.436;6.774;2022-08-05T13:18:53;2.05;;;1.73;;
20417;SDS011;10368;51.436;6.774;2022-08-05T13:21:24;3.05;;;2.13;;
20417;SDS011;10368;51.436;6.774;2022-08-05T13:24:03;3.40;;;1.73;;
20417;SDS011;10368;51.436;6.774;2022-08-05T13:26:30;11.95;;;2.60;;
20417;SDS011;10368;51.436;6.774;2022-08-05T13:28:57;3.30;;;1.95;;
20417;SDS011;10368;51.436;6.774;2022-08-05T13:31:25;3.58;;;1.80;;
20417;SDS011;10368;51.436;6.774;2022-08-05T13:34:13;6.78;;;2.38;;
20417;SDS011;10368;51.436;6.774;2022-08-05T13:36:50;4.43;;;1.63;;
20417;SDS011;10368;51.436;6.774;2022-08-05T13:39:17;2.72;;;1.80;;
20417;SDS011;10368;51.436;6.774;2022-08-05T13:42:05;4.65;;;2.38;;
20417;SDS011;10368;51.436;6.774;2022-08-05T13:44:34;3.30;;;1.80;;
20417;SDS011;10368;51.436;6.774;2022-08-05T13:47:01;3.95;;;1.80;;
20417;SDS011;10368;51.436;6.774;2022-08-05T13:49:34;1.95;;;1.77;;
20417;SDS011;10368;51.436;6.774;2022-08-05T13:52:11;6.18;;;2.97;;
20417;SDS011;10368;51.436;6.774;2022-08-05T13:54:39;3.13;;;1.80;;
20417;SDS011;10368;51.436;6.774;2022-08-05T13:57:07;2.13;;;1.50;;
20417;SDS011;10368;51.436;6.774;2022-08-05T13:59:35;1.45;;;1.30;;
20417;SDS011;10368;51.436;6.774;2022-08-05T14:02:22;1.30;;;1.10;;
20417;SDS011;10368;51.436;6.774;2022-08-05T14:04:54;2.63;;;1.38;;
20417;SDS011;10368;51.436;6.774;2022-08-05T14:07:44;2.70;;;1.20;;
20417;SDS011;10368;51.436;6.774;2022-08-05T14:10:27;1.98;;;1.10;;
20417;SDS011;10368;51.436;6.774;2022-08-05T14:12:56;1.40;;;1.30;;
20417;SDS011;10368;51.436;6.774;2022-08-05T14:15:24;1.75;;;1.40;;
20417;SDS011;10368;51.436;6.774;2022-08-05T14:18:12;4.00;;;3.10;;
20417;SDS011;10368;51.436;6.774;2022-08-05T14:20:44;2.45;;;1.90;;
20417;SDS011;10368;51.436;6.774;2022-08-05T14:23:13;3.25;;;1.80;;
20417;SDS011;10368;51.436;6.774;2022-08-05T14:25:52;2.70;;;1.50;;
20417;SDS011;10368;51.436;6.774;2022-08-05T14:28:23;2.83;;;1.23;;
20417;SDS011;10368;51.436;6.774;2022-08-05T14:30:52;1.77;;;1.17;;
20417;SDS011;10368;51.436;6.774;2022-08-05T14:33:19;1.35;;;0.80;;
20417;SDS011;10368;51.436;6.774;2022-08-05T14:35:48;3.28;;;1.23;;
20417;SDS011;10368;51.436;6.774;2022-08-05T14:38:17;3.53;;;1.40;;
20417;SDS011;10368;51.436;6.774;2022-08-05T14:40:58;1.65;;;0.90;;
20417;SDS011;10368;51.436;6.774;2022-08-05T14:43:25;3.08;;;1.00;;
20417;SDS011;10368;51.436;6.774;2022-08-05T14:46:13;5.78;;;1.27;;
20417;SDS011;10368;51.436;6.774;2022-08-05T14:48:40;1.77;;;0.98;;
20417;SDS011;10368;51.436;6.774;2022-08-05T14:51:07;6.45;;;1.55;;
20417;SDS011;10368;51.436;6.774;2022-08-05T14:53:40;5.15;;;1.10;;
20417;SDS011;10368;51.436;6.774;2022-08-05T14:56:10;3.05;;;1.77;;
20417;SDS011;10368;51.436;6.774;2022-08-05T14:58:38;5.00;;;1.60;;
20417;SDS011;10368;51.436;6.774;2022-08-05T15:01:18;1.30;;;0.98;;
20417;SDS011;10368;51.436;6.774;2022-08-05T15:04:06;1.50;;;0.82;;
20417;SDS011;10368;51.436;6.774;2022-08-05T15:06:37;3.60;;;1.10;;
20417;SDS011;10368;51.436;6.774;2022-08-05T15:09:05;2.40;;;1.40;;
20417;SDS011;10368;51.436;6.774;2022-08-05T15:11:33;1.65;;;0.70;;
20417;SDS011;10368;51.436;6.774;2022-08-05T15:14:18;1.48;;;0.55;;
20417;SDS011;10368;51.436;6.774;2022-08-05T15:17:06;0.75;;;0.70;;
20417;SDS011;10368;51.436;6.774;2022-08-05T15:19:54;1.08;;;0.70;;
20417;SDS011;10368;51.436;6.774;2022-08-05T15:22:22;2.53;;;0.88;;
20417;SDS011;10368;51.436;6.774;2022-08-05T15:24:53;3.63;;;1.38;;
20417;SDS011;10368;51.436;6.774;2022-08-05T15:27:20;0.93;;;0.70;;
20417;SDS011;10368;51.436;6.774;2022-08-05T15:29:51;1.45;;;0.57;;
20417;SDS011;10368;51.436;6.774;2022-08-05T15:32:22;4.18;;;0.73;;
20417;SDS011;10368;51.436;6.774;2022-08-05T15:34:54;0.98;;;0.60;;
20417;SDS011;10368;51.436;6.774;2022-08-05T15:37:22;2.08;;;0.82;;
20417;SDS011;10368;51.436;6.774;2022-08-05T15:40:09;2.97;;;0.60;;
20417;SDS011;10368;51.436;6.774;2022-08-05T15:42:56;1.42;;;0.70;;
20417;SDS011;10368;51.436;6.774;2022-08-05T15:45:43;0.65;;;0.60;;
20417;SDS011;10368;51.436;6.774;2022-08-05T15:48:11;2.78;;;0.63;;
20417;SDS011;10368;51.436;6.774;2022-08-05T15:50:39;4.55;;;0.85;;
20417;SDS011;10368;51.436;6.774;2022-08-05T15:53:10;2.75;;;0.80;;
20417;SDS011;10368;51.436;6.774;2022-08-05T15:55:39;1.13;;;0.73;;
20417;SDS011;10368;51.436;6.774;2022-08-05T15:58:26;4.78;;;1.52;;
20417;SDS011;10368;51.436;6.774;2022-08-05T16:01:00;2.03;;;1.00;;
20417;SDS011;10368;51.436;6.774;2022-08-05T16:03:42;3.25;;;0.88;;
20417;SDS011;10368;51.436;6.774;2022-08-05T16:06:13;3.33;;;0.73;;
20417;SDS011;10368;51.436;6.774;2022-08-05T16:08:45;2.00;;;1.27;;
20417;SDS011;10368;51.436;6.774;2022-08-05T16:11:16;1.60;;;0.82;;
20417;SDS011;10368;51.436;6.774;2022-08-05T16:13:46;1.55;;;0.80;;
20417;SDS011;10368;51.436;6.774;2022-08-05T16:16:13;1.98;;;0.90;;
20417;SDS011;10368;51.436;6.774;2022-08-05T16:18:50;1.02;;;0.73;;
20417;SDS011;10368;51.436;6.774;2022-08-05T16:21:18;2.03;;;1.00;;
20417;SDS011;10368;51.436;6.774;2022-08-05T16:24:05;0.68;;;0.63;;
20417;SDS011;10368;51.436;6.774;2022-08-05T16:26:51;2.40;;;1.00;;
20417;SDS011;10368;51.436;6.774;2022-08-05T16:29:19;1.27;;;0.90;;
20417;SDS011;10368;51.436;6.774;2022-08-05T16:31:47;1.60;;;0.77;;